createdAt,value
2023-02-18T00:01:25.908Z,7.27
2023-02-18T00:03:54.010Z,7.20
2023-02-18T00:06:24.215Z,7.18
2023-02-18T00:08:51.851Z,7.18
2023-02-18T00:11:20.347Z,7.12
2023-02-18T00:14:14.738Z,7.11
2023-02-18T00:16:42.711Z,7.07
2023-02-18T00:19:12.241Z,7.13
2023-02-18T00:21:40.246Z,7.14
2023-02-18T00:24:08.928Z,7.10
2023-02-18T00:26:36.927Z,7.00
2023-02-18T00:29:04.712Z,6.89
2023-02-18T00:31:34.327Z,6.81
2023-02-18T00:34:03.096Z,6.75
2023-02-18T00:36:30.777Z,6.69
2023-02-18T00:38:59.875Z,6.69
2023-02-18T00:41:28.233Z,6.69
2023-02-18T00:43:56.202Z,6.63
2023-02-18T00:46:24.915Z,6.61
2023-02-18T00:48:52.387Z,6.54
2023-02-18T00:51:20.403Z,6.47
2023-02-18T00:53:48.376Z,6.39
2023-02-18T00:56:16.201Z,6.29
2023-02-18T00:58:44.690Z,6.28
2023-02-18T01:01:11.436Z,6.29
2023-02-18T01:03:40.202Z,6.21
2023-02-18T01:06:08.122Z,6.18
2023-02-18T01:08:36.352Z,6.13
2023-02-18T01:11:04.304Z,6.03
2023-02-18T01:13:31.444Z,6.00
2023-02-18T01:15:59.562Z,5.98
2023-02-18T01:18:26.971Z,5.87
2023-02-18T01:20:54.420Z,5.74
2023-02-18T01:23:22.464Z,5.70
2023-02-18T01:25:50.542Z,5.65
2023-02-18T01:28:18.869Z,5.54
2023-02-18T01:30:46.939Z,5.53
2023-02-18T01:33:15.189Z,5.51
2023-02-18T01:35:42.363Z,5.48
2023-02-18T01:38:10.462Z,5.47
2023-02-18T01:40:44.485Z,5.43
2023-02-18T01:43:13.198Z,5.43
2023-02-18T01:45:57.237Z,5.34
2023-02-18T01:48:48.831Z,5.31
2023-02-18T01:51:20.771Z,5.32
2023-02-18T01:53:50.070Z,5.38
2023-02-18T01:56:23.080Z,5.48
2023-02-18T01:58:50.739Z,5.56
2023-02-18T02:01:18.813Z,5.55
2023-02-18T02:03:46.758Z,5.52
2023-02-18T02:06:18.161Z,5.49
2023-02-18T02:08:45.488Z,5.48
2023-02-18T02:11:36.056Z,5.42
2023-02-18T02:14:16.834Z,5.39
2023-02-18T02:17:06.057Z,5.40
2023-02-18T02:19:55.256Z,5.39
2023-02-18T02:22:55.194Z,5.31
2023-02-18T02:25:21.773Z,5.32
2023-02-18T02:28:03.670Z,5.36
2023-02-18T02:30:48.374Z,5.28
2023-02-18T02:33:52.491Z,5.27
2023-02-18T02:36:43.851Z,5.34
2023-02-18T02:39:29.449Z,5.37
2023-02-18T02:42:14.535Z,5.40
2023-02-18T02:45:18.453Z,5.43
2023-02-18T02:48:03.159Z,5.43
2023-02-18T02:50:36.628Z,5.45
2023-02-18T02:53:08.343Z,5.44
2023-02-18T02:55:36.312Z,5.38
2023-02-18T02:58:04.207Z,5.41
2023-02-18T03:01:08.893Z,5.45
2023-02-18T03:04:04.753Z,5.46
2023-02-18T03:07:02.773Z,5.49
2023-02-18T03:09:29.973Z,5.50
2023-02-18T03:12:08.520Z,5.46
2023-02-18T03:15:17.475Z,5.52
2023-02-18T03:18:37.452Z,5.56
2023-02-18T03:21:28.695Z,5.69
2023-02-18T03:23:59.676Z,5.71
2023-02-18T03:26:26.850Z,5.73
2023-02-18T03:28:53.980Z,5.73
2023-02-18T03:31:23.946Z,5.75
2023-02-18T03:33:57.118Z,5.72
2023-02-18T03:36:24.243Z,5.71
2023-02-18T03:39:12.297Z,5.66
2023-02-18T03:41:39.969Z,5.61
2023-02-18T03:44:09.303Z,5.67
2023-02-18T03:46:37.895Z,5.64
2023-02-18T03:49:06.171Z,5.57
2023-02-18T03:51:34.298Z,5.56
2023-02-18T03:54:02.288Z,5.55
2023-02-18T03:56:29.917Z,5.54
2023-02-18T03:58:57.934Z,5.50
2023-02-18T04:01:25.430Z,5.54
2023-02-18T04:03:55.223Z,5.57
2023-02-18T04:06:43.993Z,5.60
2023-02-18T04:09:11.974Z,5.63
2023-02-18T04:11:40.339Z,5.66
2023-02-18T04:14:07.512Z,5.72
2023-02-18T04:16:35.541Z,5.75
2023-02-18T04:19:03.546Z,5.74
2023-02-18T04:21:31.489Z,5.73
2023-02-18T04:23:59.763Z,5.76
2023-02-18T04:26:27.441Z,5.74
2023-02-18T04:28:55.422Z,5.82
2023-02-18T04:31:23.434Z,5.82
2023-02-18T04:33:51.402Z,5.80
2023-02-18T04:36:19.427Z,5.85
2023-02-18T04:38:47.371Z,5.87
2023-02-18T04:41:15.394Z,5.89
2023-02-18T04:43:43.473Z,5.95
2023-02-18T04:46:12.016Z,5.99
2023-02-18T04:48:40.009Z,6.04
2023-02-18T04:51:07.945Z,6.00
2023-02-18T04:53:35.889Z,5.93
2023-02-18T04:56:05.079Z,5.90
2023-02-18T04:58:32.979Z,5.93
2023-02-18T05:01:01.588Z,5.87
2023-02-18T05:03:29.692Z,5.89
2023-02-18T05:05:58.303Z,5.88
2023-02-18T05:08:25.889Z,5.88
2023-02-18T05:10:53.938Z,5.89
2023-02-18T05:13:22.945Z,5.98
2023-02-18T05:15:50.792Z,6.01
2023-02-18T05:18:18.371Z,6.04
2023-02-18T05:20:45.890Z,6.06
2023-02-18T05:23:14.838Z,6.07
2023-02-18T05:25:42.365Z,6.05
2023-02-18T05:28:10.014Z,6.03
2023-02-18T05:30:37.675Z,6.01
2023-02-18T05:33:05.615Z,5.98
2023-02-18T05:35:33.189Z,6.04
2023-02-18T05:38:01.244Z,6.04
2023-02-18T05:40:29.339Z,6.01
2023-02-18T05:42:57.348Z,5.97
2023-02-18T05:45:25.271Z,5.94
2023-02-18T05:47:53.181Z,5.93
2023-02-18T05:50:21.877Z,5.99
2023-02-18T05:52:50.459Z,5.98
2023-02-18T05:55:18.674Z,5.94
2023-02-18T05:57:46.202Z,5.95
2023-02-18T06:00:15.743Z,6.04
2023-02-18T06:02:44.242Z,6.06
2023-02-18T06:05:12.387Z,6.08
2023-02-18T06:07:39.843Z,6.13
2023-02-18T06:10:10.071Z,6.07
2023-02-18T06:12:37.915Z,6.04
2023-02-18T06:15:07.158Z,6.06
2023-02-18T06:17:35.159Z,6.08
2023-02-18T06:20:02.910Z,6.05
2023-02-18T06:22:30.979Z,6.03
2023-02-18T06:24:58.956Z,6.10
2023-02-18T06:27:26.614Z,6.13
2023-02-18T06:29:54.262Z,6.12
2023-02-18T06:32:22.707Z,6.13
2023-02-18T06:34:50.803Z,6.17
2023-02-18T06:37:18.851Z,6.20
2023-02-18T06:39:46.375Z,6.16
2023-02-18T06:42:14.376Z,6.20
2023-02-18T06:44:42.148Z,6.26
2023-02-18T06:47:10.093Z,6.26
2023-02-18T06:49:39.034Z,6.27
2023-02-18T06:54:48.157Z,6.27
2023-02-18T06:57:16.159Z,6.34
2023-02-18T06:59:45.531Z,6.41
2023-02-18T07:02:16.148Z,6.47
2023-02-18T07:04:45.663Z,6.51
2023-02-18T07:07:13.265Z,6.52
2023-02-18T07:09:41.269Z,6.51
2023-02-18T07:12:09.431Z,6.46
2023-02-18T07:14:37.515Z,6.44
2023-02-18T07:17:05.500Z,6.38
2023-02-18T07:19:33.538Z,6.38
2023-02-18T07:22:01.604Z,6.47
2023-02-18T07:24:29.532Z,6.57
2023-02-18T07:26:57.204Z,6.67
2023-02-18T07:29:25.193Z,6.66
2023-02-18T07:31:52.866Z,6.69
2023-02-18T07:34:20.534Z,6.80
2023-02-18T07:36:51.932Z,6.79
2023-02-18T07:39:20.885Z,6.78
2023-02-18T07:41:49.372Z,6.82
2023-02-18T07:44:17.715Z,6.92
2023-02-18T07:46:47.366Z,7.00
2023-02-18T07:49:16.351Z,7.07
2023-02-18T07:51:44.780Z,7.13
2023-02-18T07:54:13.411Z,7.13
2023-02-18T07:56:43.110Z,7.20
2023-02-18T07:59:11.729Z,7.20
2023-02-18T08:01:40.083Z,7.25
2023-02-18T08:04:08.006Z,7.32
2023-02-18T08:06:40.510Z,7.40
2023-02-18T08:09:07.726Z,7.51
2023-02-18T08:11:39.258Z,7.56
2023-02-18T08:14:07.296Z,7.58
2023-02-18T08:16:34.938Z,7.62
2023-02-18T08:19:03.600Z,7.68
2023-02-18T08:21:31.022Z,7.74
2023-02-18T08:24:00.579Z,7.80
2023-02-18T08:26:28.010Z,7.85
2023-02-18T08:28:56.211Z,7.89
2023-02-18T08:31:27.112Z,7.95
2023-02-18T08:33:55.130Z,8.04
2023-02-18T08:36:22.739Z,8.03
2023-02-18T08:38:50.824Z,8.06
2023-02-18T08:41:19.158Z,8.13
2023-02-18T08:43:46.612Z,8.19
2023-02-18T08:46:15.851Z,8.12
2023-02-18T08:48:44.677Z,8.11
2023-02-18T08:51:22.747Z,8.08
2023-02-18T08:53:50.578Z,8.06
2023-02-18T08:56:18.135Z,8.12
2023-02-18T08:58:45.705Z,8.20
2023-02-18T09:01:13.696Z,8.32
2023-02-18T09:03:41.421Z,8.35
2023-02-18T09:06:09.518Z,8.28
2023-02-18T09:08:37.578Z,8.20
2023-02-18T09:11:05.944Z,8.20
2023-02-18T09:13:34.647Z,8.30
2023-02-18T09:16:04.637Z,8.41
2023-02-18T09:18:32.579Z,8.51
2023-02-18T09:21:01.304Z,8.60
2023-02-18T09:23:29.862Z,8.68
2023-02-18T09:25:58.009Z,8.77
2023-02-18T09:28:25.629Z,8.87
2023-02-18T09:30:53.692Z,9.01
2023-02-18T09:33:21.889Z,9.05
2023-02-18T09:35:50.460Z,9.11
2023-02-18T09:38:18.755Z,9.15
2023-02-18T09:40:52.269Z,9.15
2023-02-18T09:43:43.516Z,9.13
2023-02-18T09:46:19.994Z,9.23
2023-02-18T09:48:47.622Z,9.35
2023-02-18T09:51:15.883Z,9.32
2023-02-18T09:53:45.315Z,9.40
2023-02-18T09:56:21.506Z,9.49
2023-02-18T09:58:49.584Z,9.51
2023-02-18T10:01:37.768Z,9.56
2023-02-18T10:04:14.094Z,9.67
2023-02-18T10:07:21.102Z,9.69
2023-02-18T10:09:47.993Z,9.52
2023-02-18T10:12:18.381Z,9.57
2023-02-18T10:14:49.971Z,9.56
2023-02-18T10:17:16.852Z,9.55
2023-02-18T10:19:44.105Z,9.55
2023-02-18T10:22:14.056Z,9.62
2023-02-18T10:24:44.915Z,9.72
2023-02-18T10:27:12.635Z,9.77
2023-02-18T10:29:40.648Z,9.82
2023-02-18T10:32:27.712Z,9.91
2023-02-18T10:35:03.260Z,9.93
2023-02-18T10:37:52.777Z,10.00
2023-02-18T10:40:25.828Z,10.09
2023-02-18T10:43:10.487Z,10.28
2023-02-18T10:45:46.438Z,10.51
2023-02-18T10:48:50.687Z,10.79
2023-02-18T10:51:22.705Z,10.76
2023-02-18T10:53:51.906Z,10.76
2023-02-18T10:56:42.983Z,10.72
2023-02-18T10:59:22.418Z,10.79
2023-02-18T11:02:12.509Z,10.79
2023-02-18T11:04:40.980Z,10.81
2023-02-18T11:07:26.203Z,10.86
2023-02-18T11:09:57.033Z,10.98
2023-02-18T11:12:25.199Z,11.10
2023-02-18T11:15:10.789Z,11.13
2023-02-18T11:17:41.982Z,11.15
2023-02-18T11:20:23.252Z,11.21
2023-02-18T11:22:50.722Z,11.25
2023-02-18T11:25:23.592Z,11.33
2023-02-18T11:27:53.130Z,11.38
2023-02-18T11:30:33.600Z,11.51
2023-02-18T11:33:03.754Z,11.58
2023-02-18T11:35:32.533Z,11.54
2023-02-18T11:38:00.104Z,11.54
2023-02-18T11:40:33.885Z,11.63
2023-02-18T11:43:12.472Z,11.88
2023-02-18T11:45:46.312Z,11.92
2023-02-18T11:48:18.652Z,12.15
2023-02-18T11:50:52.234Z,12.21
2023-02-18T11:53:30.101Z,12.23
2023-02-18T11:55:58.932Z,12.19
2023-02-18T11:58:26.741Z,12.27
2023-02-18T12:00:57.228Z,12.29
2023-02-18T12:03:42.826Z,12.21
2023-02-18T12:06:21.316Z,12.33
2023-02-18T12:09:00.380Z,12.41
2023-02-18T12:11:30.901Z,12.41
2023-02-18T12:13:58.503Z,12.48
2023-02-18T12:16:52.699Z,12.63
2023-02-18T12:19:23.038Z,12.67
2023-02-18T12:22:01.011Z,12.64
2023-02-18T12:24:40.327Z,12.78
2023-02-18T12:27:30.385Z,12.77
2023-02-18T12:30:16.979Z,12.85
2023-02-18T12:32:53.031Z,13.11
2023-02-18T12:36:01.795Z,13.34
2023-02-18T12:39:00.444Z,13.72
2023-02-18T12:41:37.587Z,14.13
2023-02-18T12:44:10.872Z,14.62
2023-02-18T12:46:50.022Z,14.98
2023-02-18T12:49:42.431Z,15.38
2023-02-18T12:52:51.509Z,15.43
2023-02-18T12:56:13.283Z,14.95
2023-02-18T12:59:09.390Z,14.91
2023-02-18T13:02:24.381Z,15.25
2023-02-18T13:05:32.480Z,15.44
2023-02-18T13:08:36.514Z,15.66
2023-02-18T13:11:47.212Z,15.48
2023-02-18T13:14:21.076Z,15.59
2023-02-18T13:16:56.254Z,15.91
2023-02-18T13:19:35.537Z,16.37
2023-02-18T13:22:09.338Z,16.66
2023-02-18T13:24:56.333Z,17.09
2023-02-18T13:27:49.727Z,17.57
2023-02-18T13:39:15.147Z,18.53
2023-02-18T13:41:43.180Z,18.08
2023-02-18T13:44:19.087Z,17.65
2023-02-18T13:46:56.630Z,17.50
2023-02-18T13:49:27.660Z,17.45
2023-02-18T13:51:56.420Z,17.47
2023-02-18T13:54:32.650Z,17.66
2023-02-18T13:57:03.225Z,18.13
2023-02-18T13:59:35.377Z,18.30
2023-02-18T14:02:32.300Z,18.36
2023-02-18T14:05:16.235Z,18.47
2023-02-18T14:07:55.881Z,18.59
2023-02-18T14:10:23.079Z,18.49
2023-02-18T14:12:52.007Z,18.35
2023-02-18T14:16:01.057Z,18.19
2023-02-18T14:18:56.749Z,18.24
2023-02-18T14:21:48.323Z,17.96
2023-02-18T14:24:16.864Z,17.87
2023-02-18T14:26:47.293Z,17.95
2023-02-18T14:29:28.016Z,18.03
2023-02-18T14:32:03.791Z,17.84
2023-02-18T14:34:41.219Z,17.78
2023-02-18T14:37:40.675Z,17.64
2023-02-18T14:40:24.593Z,17.76
2023-02-18T14:43:40.438Z,18.06
2023-02-18T14:46:41.737Z,18.24
2023-02-18T14:49:46.462Z,18.19
2023-02-18T14:52:31.683Z,18.22
2023-02-18T14:55:11.798Z,18.33
2023-02-18T14:57:46.956Z,18.74
2023-02-18T15:00:30.426Z,19.02
2023-02-18T15:03:04.359Z,19.02
2023-02-18T15:05:46.369Z,18.98
2023-02-18T15:08:27.678Z,18.81
2023-02-18T15:11:18.615Z,18.53
2023-02-18T15:13:49.884Z,18.16
2023-02-18T15:16:30.850Z,17.87
2023-02-18T15:19:03.450Z,17.54
2023-02-18T15:21:40.354Z,17.16
2023-02-18T15:24:40.172Z,16.83
2023-02-18T15:27:25.616Z,16.71
2023-02-18T15:30:18.197Z,16.72
2023-02-18T15:35:49.787Z,16.57
2023-02-18T15:38:32.606Z,16.54
2023-02-18T15:41:10.769Z,16.70
2023-02-18T15:46:41.746Z,16.54
2023-02-18T15:49:33.084Z,16.38
2023-02-18T15:52:02.206Z,16.32
2023-02-18T15:57:30.603Z,15.79
2023-02-18T16:00:10.050Z,15.74
2023-02-18T16:02:53.293Z,15.86
2023-02-18T16:05:35.097Z,16.33
2023-02-18T16:08:09.671Z,16.60
2023-02-18T16:10:51.891Z,16.62
2023-02-18T16:13:26.873Z,16.57
2023-02-18T16:16:01.182Z,16.38
2023-02-18T16:18:43.545Z,16.02
2023-02-18T16:21:29.620Z,15.70
2023-02-18T16:24:09.364Z,15.29
2023-02-18T16:26:51.469Z,14.90
2023-02-18T16:29:44.239Z,14.47
2023-02-18T16:32:17.856Z,14.12
2023-02-18T16:34:49.606Z,13.89
2023-02-18T16:37:40.505Z,13.73
2023-02-18T16:40:51.029Z,13.51
2023-02-18T16:43:27.592Z,13.31
2023-02-18T16:46:01.588Z,13.18
2023-02-18T16:48:44.259Z,13.08
2023-02-18T16:51:29.348Z,12.95
2023-02-18T16:54:00.401Z,12.84
2023-02-18T16:56:31.162Z,12.75
2023-02-18T16:59:09.846Z,12.60
2023-02-18T17:01:48.179Z,12.45
2023-02-18T17:04:23.218Z,12.32
2023-02-18T17:06:57.517Z,12.21
2023-02-18T17:09:52.638Z,12.18
2023-02-18T17:12:43.547Z,12.09
2023-02-18T17:15:40.455Z,12.11
2023-02-18T17:18:14.521Z,12.04
2023-02-18T17:23:35.770Z,11.88
2023-02-18T17:26:11.072Z,11.84
2023-02-18T17:28:48.163Z,11.77
2023-02-18T17:31:30.949Z,11.72
2023-02-18T17:34:09.552Z,11.70
2023-02-18T17:36:44.335Z,11.64
2023-02-18T17:39:21.081Z,11.55
2023-02-18T17:41:57.545Z,11.52
2023-02-18T17:44:55.566Z,11.45
2023-02-18T17:47:30.297Z,11.42
2023-02-18T17:50:05.949Z,11.35
2023-02-18T17:52:37.740Z,11.33
2023-02-18T17:55:36.475Z,11.25
2023-02-18T17:58:06.159Z,11.19
2023-02-18T18:00:42.043Z,11.12
2023-02-18T18:03:11.874Z,11.08
2023-02-18T18:05:41.573Z,11.03
2023-02-18T18:08:09.758Z,11.02
2023-02-18T18:11:10.763Z,10.96
2023-02-18T18:13:46.367Z,10.94
2023-02-18T18:16:22.072Z,10.89
2023-02-18T18:18:50.070Z,10.81
2023-02-18T18:21:44.651Z,10.75
2023-02-18T18:24:20.391Z,10.68
2023-02-18T18:26:50.343Z,10.63
2023-02-18T18:29:22.696Z,10.57
2023-02-18T18:31:51.370Z,10.51
2023-02-18T18:34:20.288Z,10.49
2023-02-18T18:36:52.048Z,10.44
2023-02-18T18:39:29.336Z,10.44
2023-02-18T18:41:59.974Z,10.41
2023-02-18T18:44:29.488Z,10.39
2023-02-18T18:47:03.581Z,10.38
2023-02-18T18:49:33.439Z,10.34
2023-02-18T18:52:02.197Z,10.31
2023-02-18T18:54:36.258Z,10.29
2023-02-18T18:57:05.460Z,10.25
2023-02-18T18:59:34.363Z,10.24
2023-02-18T19:02:06.620Z,10.15
2023-02-18T19:04:37.403Z,10.17
2023-02-18T19:07:06.249Z,10.15
2023-02-18T19:09:35.003Z,10.16
2023-02-18T19:12:03.561Z,10.14
2023-02-18T19:14:33.009Z,10.09
2023-02-18T19:17:01.659Z,10.10
2023-02-18T19:19:31.323Z,10.10
2023-02-18T19:21:59.927Z,10.09
2023-02-18T19:24:31.381Z,10.06
2023-02-18T19:27:01.050Z,10.02
2023-02-18T19:29:30.081Z,9.96
2023-02-18T19:31:58.571Z,9.93
2023-02-18T19:34:27.989Z,9.93
2023-02-18T19:39:39.567Z,9.76
2023-02-18T19:42:07.571Z,9.67
2023-02-18T19:44:37.306Z,9.63
2023-02-18T19:47:05.575Z,9.63
2023-02-18T19:49:34.880Z,9.59
2023-02-18T19:52:08.900Z,9.59
2023-02-18T19:54:37.699Z,9.64
2023-02-18T19:57:07.477Z,9.53
2023-02-18T19:59:36.463Z,9.50
2023-02-18T20:02:05.461Z,9.41
2023-02-18T20:04:34.215Z,9.36
2023-02-18T20:07:03.538Z,9.32
2023-02-18T20:09:32.588Z,9.33
2023-02-18T20:12:00.565Z,9.28
2023-02-18T20:14:29.511Z,9.23
2023-02-18T20:16:58.058Z,9.15
2023-02-18T20:19:30.383Z,9.01
2023-02-18T20:22:00.216Z,8.78
2023-02-18T20:24:29.994Z,8.71
2023-02-18T20:27:02.380Z,8.68
2023-02-18T20:29:33.550Z,8.68
2023-02-18T20:32:02.048Z,8.64
2023-02-18T20:34:30.431Z,8.64
2023-02-18T20:36:58.784Z,8.66
2023-02-18T20:39:27.786Z,8.64
2023-02-18T20:41:57.914Z,8.63
2023-02-18T20:44:28.522Z,8.67
2023-02-18T20:46:57.535Z,8.53
2023-02-18T20:49:25.966Z,8.40
2023-02-18T20:51:54.291Z,8.33
2023-02-18T20:54:22.894Z,8.31
2023-02-18T20:56:51.912Z,8.28
2023-02-18T20:59:20.247Z,8.30
2023-02-18T21:01:51.604Z,8.31
2023-02-18T21:04:20.145Z,8.35
2023-02-18T21:06:47.825Z,8.39
2023-02-18T21:09:16.974Z,8.41
2023-02-18T21:11:45.827Z,8.47
2023-02-18T21:14:14.434Z,8.48
2023-02-18T21:16:42.908Z,8.51
2023-02-18T21:19:13.816Z,8.51
2023-02-18T21:21:42.846Z,8.55
2023-02-18T21:24:11.713Z,8.60
2023-02-18T21:26:40.294Z,8.61
2023-02-18T21:29:08.707Z,8.56
2023-02-18T21:31:38.430Z,8.57
2023-02-18T21:34:07.631Z,8.57
2023-02-18T21:36:36.100Z,8.58
2023-02-18T21:39:05.725Z,8.61
2023-02-18T21:41:35.145Z,8.63
2023-02-18T21:44:02.950Z,8.64
2023-02-18T21:46:31.813Z,8.66
2023-02-18T21:49:03.207Z,8.67
2023-02-18T21:51:50.296Z,8.69
2023-02-18T21:54:19.758Z,8.69
2023-02-18T21:56:48.729Z,8.44
2023-02-18T21:59:17.191Z,8.40
2023-02-18T22:01:46.020Z,8.47
2023-02-18T22:04:14.916Z,8.56
2023-02-18T22:06:44.394Z,8.63
2023-02-18T22:09:12.572Z,8.67
2023-02-18T22:11:42.156Z,8.66
2023-02-18T22:14:31.516Z,8.61
2023-02-18T22:17:00.202Z,8.51
2023-02-18T22:19:29.709Z,8.44
2023-02-18T22:21:58.853Z,8.44
2023-02-18T22:24:27.636Z,8.51
2023-02-18T22:26:57.298Z,8.61
2023-02-18T22:29:25.735Z,8.70
2023-02-18T22:31:54.411Z,8.75
2023-02-18T22:34:24.204Z,8.85
2023-02-18T22:36:53.320Z,8.86
2023-02-18T22:39:21.697Z,8.82
2023-02-18T22:41:50.724Z,8.87
2023-02-18T22:44:19.324Z,8.77
2023-02-18T22:46:47.650Z,8.74
2023-02-18T22:49:16.284Z,8.81
2023-02-18T22:51:45.850Z,8.82
2023-02-18T22:54:21.503Z,8.86
2023-02-18T22:56:50.151Z,8.91
2023-02-18T22:59:22.236Z,8.97
2023-02-18T23:01:50.628Z,9.01
2023-02-18T23:04:19.121Z,9.09
2023-02-18T23:06:48.244Z,9.15
2023-02-18T23:09:24.778Z,9.20
2023-02-18T23:11:54.487Z,9.26
2023-02-18T23:14:22.684Z,9.30
2023-02-18T23:17:11.075Z,9.32
2023-02-18T23:19:38.775Z,9.30
2023-02-18T23:22:06.869Z,9.28
2023-02-18T23:24:44.988Z,9.23
2023-02-18T23:27:14.805Z,9.22
2023-02-18T23:29:43.331Z,9.25
2023-02-18T23:32:12.235Z,9.26
2023-02-18T23:34:40.938Z,9.31
2023-02-18T23:37:11.741Z,9.33
2023-02-18T23:39:40.527Z,9.33
2023-02-18T23:42:09.976Z,9.33
2023-02-18T23:44:38.864Z,9.34
2023-02-18T23:47:08.634Z,9.35
2023-02-18T23:49:37.300Z,9.35
2023-02-18T23:52:08.412Z,9.37
2023-02-18T23:54:37.623Z,9.37
2023-02-18T23:57:06.588Z,9.31
2023-02-18T23:59:34.909Z,9.29
